Maersk Bali — 9V7499 — position and weather

sailwx.info

Track history (hours):
 
Tides and Currents Weather Stations Pressure Air Temp Water Temp Dewpoint Dewpoint Depression Visibility Wind Speed Wind Dir Waves Ship Positions

Maersk Bali

Last reported at 2016-May-21 17:29 UTC. Time now 2016-May-26 20:26 UTC.
Position N 09°06' W 079°41'.

Length 223 m; draft 8.4 m.

Type: Cargo ship. MMSI: 563102000.

Date/timePositionNaut miles runAvg speedWind from/ knotsBaromVisibWave heightAir tempDewpointWater temp
2016-May-21 17:29N 09°06' W 079°41'6 5.4
2016-May-21 16:27N 09°07' W 079°47'3 3.8
2016-May-21 15:33N 09°09' W 079°49'5 4.7
2016-May-21 14:33N 09°11' W 079°53'4 3.8
2016-May-21 13:33N 09°15' W 079°55'0 0.1
2016-May-21 12:33N 09°15' W 079°55'1 0.6
2016-May-21 11:33N 09°15' W 079°55'1 1.4
2016-May-21 10:33N 09°17' W 079°55'3 2.8
2016-May-21 09:34N 09°19' W 079°55'6 5.6
2016-May-21 08:33N 09°25' W 079°57'0 0.1
2016-May-21 07:33N 09°25' W 079°57'0 0.0
2016-May-21 06:34N 09°25' W 079°57'0 0.0
2016-May-21 05:33N 09°25' W 079°57'0 0.0
2016-May-21 04:33N 09°25' W 079°57'0 0.0
2016-May-21 03:33N 09°25' W 079°57'0 0.0
2016-May-21 02:33N 09°25' W 079°57'0 0.0
2016-May-21 01:33N 09°25' W 079°57'0 0.0
2016-May-21 00:33N 09°25' W 079°57'0 0.0
2016-May-20 23:34N 09°25' W 079°57'4 4.0
2016-May-20 22:33N 09°22' W 079°54'0 0.4
2016-May-20 21:30N 09°22' W 079°53'0 0.0
2016-May-20 20:33N 09°22' W 079°53'0 0.0
2016-May-20 19:31N 09°22' W 079°53'0 0.0
2016-May-20 18:33N 09°22' W 079°53'0 0.0
2016-May-20 17:31N 09°22' W 079°53'0 0.0
2016-May-20 16:33N 09°22' W 079°53'0 0.0
2016-May-20 15:33N 09°22' W 079°53'0 0.0
2016-May-20 14:33N 09°22' W 079°53'0 0.0
2016-May-20 13:33N 09°22' W 079°53'0 0.0
2016-May-20 12:33N 09°22' W 079°53'0 0.0
2016-May-20 11:34N 09°22' W 079°53'2 1.6
2016-May-20 10:33N 09°23' W 079°54'1110.4
2016-May-20 09:32N 09°34' W 079°52'1111.2
2016-May-20 08:33N 09°43' W 079°47'  
Track history (hours):
 
Tides and Currents Weather Stations Pressure Air Temp Water Temp Dewpoint Dewpoint Depression Visibility Wind Speed Wind Dir Waves Ship Positions

Maersk Bali

Last reported at 2016-May-21 17:29 UTC. Time now 2016-May-26 20:26 UTC.
Position N 09°06' W 079°41'.

Length 223 m; draft 8.4 m.

Type: Cargo ship. MMSI: 563102000.

Date/timePositionNaut miles runAvg speedWind from/ knotsBaromVisibWave heightAir tempDewpointWater temp
2016-May-21 17:29N 09°06' W 079°41'6 5.4
2016-May-21 16:27N 09°07' W 079°47'3 3.8
2016-May-21 15:33N 09°09' W 079°49'5 4.7
2016-May-21 14:33N 09°11' W 079°53'4 3.8
2016-May-21 13:33N 09°15' W 079°55'0 0.1
2016-May-21 12:33N 09°15' W 079°55'1 0.6
2016-May-21 11:33N 09°15' W 079°55'1 1.4
2016-May-21 10:33N 09°17' W 079°55'3 2.8
2016-May-21 09:34N 09°19' W 079°55'6 5.6
2016-May-21 08:33N 09°25' W 079°57'0 0.1
2016-May-21 07:33N 09°25' W 079°57'0 0.0
2016-May-21 06:34N 09°25' W 079°57'0 0.0
2016-May-21 05:33N 09°25' W 079°57'0 0.0
2016-May-21 04:33N 09°25' W 079°57'0 0.0
2016-May-21 03:33N 09°25' W 079°57'0 0.0
2016-May-21 02:33N 09°25' W 079°57'0 0.0
2016-May-21 01:33N 09°25' W 079°57'0 0.0
2016-May-21 00:33N 09°25' W 079°57'0 0.0
2016-May-20 23:34N 09°25' W 079°57'4 4.0
2016-May-20 22:33N 09°22' W 079°54'0 0.4
2016-May-20 21:30N 09°22' W 079°53'0 0.0
2016-May-20 20:33N 09°22' W 079°53'0 0.0
2016-May-20 19:31N 09°22' W 079°53'0 0.0
2016-May-20 18:33N 09°22' W 079°53'0 0.0
2016-May-20 17:31N 09°22' W 079°53'0 0.0
2016-May-20 16:33N 09°22' W 079°53'0 0.0
2016-May-20 15:33N 09°22' W 079°53'0 0.0
2016-May-20 14:33N 09°22' W 079°53'0 0.0
2016-May-20 13:33N 09°22' W 079°53'0 0.0
2016-May-20 12:33N 09°22' W 079°53'0 0.0
2016-May-20 11:34N 09°22' W 079°53'2 1.6
2016-May-20 10:33N 09°23' W 079°54'1110.4
2016-May-20 09:32N 09°34' W 079°52'1111.2
2016-May-20 08:33N 09°43' W 079°47'  

Dump ship's entire track history